Happy Valentine's Day! 

Flight Track Log - Related Links

Times and Time Zones

All times are in EDT time to prevent confusion due to time zone crossing. See the KAP21 flight status page for this flight to view local times or setup timezone preferences in your user account.


Time Position Orientation Groundspeed Altitude Reporting Facility
EDT Latitude Longitude Course Direction KTS MPH feet Rate Location/Type
Sat 08:14:01 AM 42.3667 -71.0167 216° Southwest 108 124 500  Level KA90
Sat 08:14:37 AM 42.3500 -71.0333 216° Southwest 110 127 1,000 733 Climbing KA90
Sat 08:15:31 AM 42.3167 -71.0667 216° Southwest 122 140 1,600 550 Climbing KA90
Sat 08:16:37 AM 42.2833 -71.0667 180° South 115 132 2,100 476 Climbing KA90
Sat 08:17:37 AM 42.2667 -71.0333 124° Southeast 137 158 2,600 448 Climbing KA90
Sat 08:19:31 AM 42.2500 -70.9333 103° East 144 166 3,400 421 Climbing KA90
Sat 08:21:00 AM 42.1991 -70.8880 109° East  Level Estimated
Sat 08:28:00 AM 41.9589 -70.6749 119° Southeast  Level Estimated
Sat 08:29:00 AM 41.9847 -70.6320 51° Northeast  Level FlightAware Approximate
Sat 08:30:00 AM 41.9493 -70.6039 114° Southeast  Level Estimated
Sat 08:31:00 AM 41.9558 -70.5494 81° East  Level FlightAware Approximate
Sat 08:32:00 AM 41.9624 -70.4948 81° East  Level FlightAware Approximate
Sat 08:33:00 AM 41.9689 -70.4403 81° East  Level FlightAware Approximate
Sat 08:34:00 AM 41.9754 -70.3857 81° East  Level FlightAware Approximate
Sat 08:35:00 AM 41.9819 -70.3311 81° East  Level FlightAware Approximate
Sat 08:36:00 AM 41.9883 -70.2765 81° East  Level FlightAware Approximate
Sat 08:37:00 AM 41.9482 -70.2646 180° South  Level Estimated
Sat 08:38:00 AM 41.9153 -70.2316 143° Southeast  Level FlightAware Approximate
Sat 08:39:00 AM 41.8823 -70.1986 143° Southeast  Level FlightAware Approximate
Sat 08:40:00 AM 41.8494 -70.1656 143° Southeast  Level FlightAware Approximate
Sat 08:41:00 AM 41.8164 -70.1327 143° Southeast  Level FlightAware Approximate
Sat 08:42:00 AM 41.7834 -70.0998 143° Southeast  Level FlightAware Approximate
Sat 08:43:00 AM 41.7505 -70.0669 143° Southeast  Level FlightAware Approximate
Sat 08:44:00 AM 41.7094 -70.0664 180° South  Level Estimated
Sat 08:45:00 AM 41.6693 -70.0543 167° South  Level FlightAware Approximate
Sat 08:46:00 AM 41.6292 -70.0422 167° South  Level FlightAware Approximate
Sat 08:47:00 AM 41.5882 -70.0441 189° South  Level Estimated
Sat 08:48:00 AM 41.5471 -70.0475 184° South  Level FlightAware Approximate
Sat 08:49:00 AM 41.5061 -70.0493 180° South  Level Estimated
Sat 08:50:00 AM 41.4650 -70.0511 180° South  Level Estimated
Sat 08:51:00 AM 41.4239 -70.0508 180° South  Level FlightAware Approximate
Sat 08:52:00 AM 41.3828 -70.0505 180° South  Level FlightAware Approximate
Sat 08:53:00 AM 41.3417 -70.0502 180° South  Level FlightAware Approximate
Sat 08:54:00 AM 41.3008 -70.0549 180° South  Level Estimated
Sat 08:55:00 AM 41.2598 -70.0509 176° South  Level FlightAware Approximate
Sat 08:56:00 AM 41.2500 -70.0500 180° South  Level FlightAware Approximate
Sat 08:57:00 AM 41.2531 -70.0603 180° South  Level Estimated
Sat 08:58:00 AM 41.2531 -70.0603 180° South  Level Estimated
Sat 08:59:00 AM 41.2531 -70.0603 180° South  Level Estimated
Sat 09:00:00 AM 41.2531 -70.0603 180° South  Level Estimated
Sat 09:01:00 AM 41.2531 -70.0603 180° South  Level Estimated
Sat 09:02:00 AM 41.2531 -70.0603 180° South  Level Estimated
Sat 09:03:00 AM 41.2531 -70.0603 180° South  Level Estimated
Sat 09:04:00 AM 41.2531 -70.0603 180° South  Level Estimated

Login

Don't have an account? Register now (free) for customized features, flight alerts, and more!